Pacific Echo — CFN6252 — position and weather

sailwx.info

Track history (hours):
 
Tides and Currents Weather Stations Pressure Air Temp Water Temp Dewpoint Dewpoint Depression Visibility Wind Speed Wind Dir Waves Ship Positions

Pacific Echo

Last reported at 2017-Oct-20 19:30 UTC. Time now 2017-Oct-20 19:43 UTC.
Position N 49°07' W 123°17'.

Type: Other ship. MMSI: 316023437.

Date/timePositionNaut miles runAvg speedWind from/ knotsBaromVisibWave heightAir tempDewpointWater temp
2017-Oct-20 19:30N 49°07' W 123°17'1 2.3
2017-Oct-20 19:00N 49°07' W 123°16'0 0.1
2017-Oct-20 18:30N 49°07' W 123°16'0 0.6
2017-Oct-20 18:00N 49°07' W 123°16'0 0.4
2017-Oct-20 17:30N 49°07' W 123°16'0 0.3
2017-Oct-20 17:00N 49°07' W 123°16'0 0.1
2017-Oct-20 16:30N 49°07' W 123°16'1 2.5
2017-Oct-20 16:00N 49°07' W 123°17'713.7
2017-Oct-20 15:30N 49°07' W 123°07'9 1.3
2017-Oct-20 08:44N 49°12' W 122°55'0 0.0
2017-Oct-20 08:15N 49°12' W 122°55'0 0.0
2017-Oct-20 07:27N 49°12' W 122°55'0 0.0
2017-Oct-20 06:55N 49°12' W 122°55'0 0.0
2017-Oct-20 06:25N 49°12' W 122°55'0 0.0
2017-Oct-20 05:45N 49°12' W 122°55'0 0.0
2017-Oct-20 05:28N 49°12' W 122°55'0 0.0
2017-Oct-20 05:00N 49°12' W 122°55'0 0.0
2017-Oct-20 04:29N 49°12' W 122°55'0 0.0
2017-Oct-20 04:00N 49°12' W 122°55'0 0.0
2017-Oct-20 03:24N 49°12' W 122°55'0 0.0
2017-Oct-20 03:00N 49°12' W 122°55'0 0.0
2017-Oct-19 23:10N 49°12' W 122°55'0 0.0
2017-Oct-19 23:00N 49°12' W 122°55'0 0.0
2017-Oct-19 22:28N 49°12' W 122°55'0 0.0
2017-Oct-19 21:58N 49°12' W 122°55'0 0.0
2017-Oct-19 21:28N 49°12' W 122°55'0 0.0
2017-Oct-19 20:59N 49°12' W 122°55'0 0.3
2017-Oct-19 20:29N 49°12' W 122°55'11 9.8
2017-Oct-19 19:20N 49°07' W 123°11'412.3
2017-Oct-19 19:00N 49°07' W 123°17'714.4
2017-Oct-19 18:30N 49°00' W 123°12'1 2.8
2017-Oct-19 17:59N 49°01' W 123°09'0 0.6
2017-Oct-19 17:30N 49°01' W 123°10'0 0.2
2017-Oct-19 17:00N 49°00' W 123°10'611.5
2017-Oct-19 16:30N 49°03' W 123°17'5 7.4
2017-Oct-19 15:46N 49°07' W 123°11'728.4
2017-Oct-19 15:31N 49°09' W 123°01'4 8.4
2017-Oct-19 14:59N 49°12' W 122°55'0 0.0
2017-Oct-19 14:27N 49°12' W 122°55'0 0.0
2017-Oct-19 13:56N 49°12' W 122°55'0 0.0
2017-Oct-19 13:30N 49°12' W 122°55'0 0.0
2017-Oct-19 12:53N 49°12' W 122°55'0 0.0
2017-Oct-19 12:30N 49°12' W 122°55'0 0.0
2017-Oct-19 11:59N 49°12' W 122°55'0 0.0
2017-Oct-19 11:26N 49°12' W 122°55'0 0.0
2017-Oct-19 10:59N 49°12' W 122°55'0 0.0
2017-Oct-19 10:28N 49°12' W 122°55'0 0.0
2017-Oct-19 09:59N 49°12' W 122°55'0 0.0
2017-Oct-19 09:28N 49°12' W 122°55'0 0.0
2017-Oct-19 08:56N 49°12' W 122°55'0 0.0
2017-Oct-19 08:28N 49°12' W 122°55'0 0.0
2017-Oct-19 07:57N 49°12' W 122°55'0 0.0
2017-Oct-19 07:30N 49°12' W 122°55'0 0.0
2017-Oct-19 07:00N 49°12' W 122°55'0 0.0
2017-Oct-19 06:30N 49°12' W 122°55'0 0.0
2017-Oct-19 06:00N 49°12' W 122°55'0 0.0
2017-Oct-19 05:30N 49°12' W 122°55'0 0.0
2017-Oct-19 04:58N 49°12' W 122°55'0 0.0
2017-Oct-19 04:30N 49°12' W 122°55'0 0.0
2017-Oct-19 04:00N 49°12' W 122°55'0 0.0
2017-Oct-19 03:29N 49°12' W 122°55'0 0.0
2017-Oct-19 03:00N 49°12' W 122°55'0 0.0
2017-Oct-19 02:29N 49°12' W 122°55'0 0.0
2017-Oct-19 01:59N 49°12' W 122°55'0 0.0
2017-Oct-19 01:22N 49°12' W 122°55'0 0.0
2017-Oct-19 01:00N 49°12' W 122°55'0 0.0
2017-Oct-19 00:30N 49°12' W 122°55'0 0.0
2017-Oct-18 23:59N 49°12' W 122°55'0 0.0
2017-Oct-18 23:29N 49°12' W 122°55'0 0.0
2017-Oct-18 23:00N 49°12' W 122°55'0 0.0
2017-Oct-18 22:29N 49°12' W 122°55'0 0.3
2017-Oct-18 22:00N 49°11' W 122°55'917.2
2017-Oct-18 21:30N 49°07' W 123°06'1 2.0
2017-Oct-18 21:00N 49°07' W 123°05'0 0.5
2017-Oct-18 20:30N 49°07' W 123°05'0 0.8
2017-Oct-18 20:00N 49°07' W 123°06'1 1.1
2017-Oct-18 19:31N 49°07' W 123°05'1 2.1
2017-Oct-18 19:00N 49°08' W 123°04'1 2.2
2017-Oct-18 18:30N 49°09' W 123°03'1 1.8
2017-Oct-18 18:01N 49°08' W 123°03'1 1.8
2017-Oct-18 17:30N 49°09' W 123°02'0 1.0
2017-Oct-18 17:01N 49°08' W 123°03'610.7
2017-Oct-18 16:27N 49°12' W 122°55'0 0.0
2017-Oct-18 16:00N 49°12' W 122°55'0 0.0
2017-Oct-18 15:30N 49°12' W 122°55'0 0.0
2017-Oct-18 15:00N 49°12' W 122°55'0 0.0
2017-Oct-18 13:55N 49°12' W 122°55'0 0.0
2017-Oct-18 13:29N 49°12' W 122°55'0 0.0
2017-Oct-18 12:58N 49°12' W 122°55'0 0.0
2017-Oct-18 12:30N 49°12' W 122°55'0 0.0
2017-Oct-18 11:59N 49°12' W 122°55'0 0.0
2017-Oct-18 11:30N 49°12' W 122°55'0 0.0
2017-Oct-18 11:00N 49°12' W 122°55'0 0.0
2017-Oct-18 10:30N 49°12' W 122°55'0 0.0
2017-Oct-18 10:00N 49°12' W 122°55'0 0.0
2017-Oct-18 09:30N 49°12' W 122°55'0 0.0
2017-Oct-18 09:00N 49°12' W 122°55'0 0.0
2017-Oct-18 08:30N 49°12' W 122°55'0 0.0
2017-Oct-18 07:59N 49°12' W 122°55'0 0.0
2017-Oct-18 07:30N 49°12' W 122°55'0 0.0
2017-Oct-18 07:00N 49°12' W 122°55'0 0.0
2017-Oct-18 06:30N 49°12' W 122°55'0 0.0
2017-Oct-18 05:46N 49°12' W 122°55'0 0.0
2017-Oct-18 05:29N 49°12' W 122°55'0 0.0
2017-Oct-18 04:59N 49°12' W 122°55'0 0.0
2017-Oct-18 03:16N 49°12' W 122°55'0 0.0
2017-Oct-18 02:06N 49°12' W 122°55'0 0.0
2017-Oct-18 01:53N 49°12' W 122°55'0 0.0
2017-Oct-18 01:19N 49°12' W 122°55'0 0.0
2017-Oct-18 00:50N 49°12' W 122°55'0 0.0
2017-Oct-18 00:16N 49°12' W 122°55'0 0.0
2017-Oct-17 23:56N 49°12' W 122°55'0 0.0
2017-Oct-17 23:22N 49°12' W 122°55'0 0.0
2017-Oct-17 22:53N 49°12' W 122°55'0 0.0
2017-Oct-17 22:28N 49°12' W 122°55'0 0.0
2017-Oct-17 22:00N 49°12' W 122°55'0 0.0
2017-Oct-17 21:30N 49°12' W 122°55'1 2.3
2017-Oct-17 21:00N 49°10' W 122°55'3 5.4
2017-Oct-17 20:30N 49°09' W 122°59'1 1.4
2017-Oct-17 20:00N 49°09' W 123°00'1 1.9
2017-Oct-17 19:30N 49°09' W 122°59'1 1.7
2017-Oct-17 18:59N 49°09' W 123°00'2 4.0
2017-Oct-17 18:30N 49°09' W 122°57'0 0.8
2017-Oct-17 18:00N 49°09' W 122°57'0 0.2
2017-Oct-17 17:30N 49°10' W 122°57'1 1.7
2017-Oct-17 16:59N 49°09' W 122°58'0 0.1
2017-Oct-17 16:30N 49°09' W 122°58'0 0.8
2017-Oct-17 15:59N 49°09' W 122°57'1 3.0
2017-Oct-17 15:30N 49°10' W 122°56'1 2.0
2017-Oct-17 14:52N 49°12' W 122°55'0 0.0
2017-Oct-17 14:30N 49°12' W 122°55'0 0.0
2017-Oct-17 14:00N 49°12' W 122°55'0 0.0
2017-Oct-17 13:25N 49°12' W 122°55'0 0.0
2017-Oct-17 12:56N 49°12' W 122°55'0 0.0
2017-Oct-17 12:30N 49°12' W 122°55'0 0.0
2017-Oct-17 11:59N 49°12' W 122°55'0 0.0
2017-Oct-17 11:21N 49°12' W 122°55'0 0.0
2017-Oct-17 10:43N 49°12' W 122°55'0 0.0
2017-Oct-17 10:26N 49°12' W 122°55'0 0.0
2017-Oct-17 07:12N 49°12' W 122°55'0 0.0
2017-Oct-17 06:52N 49°12' W 122°55'0 0.0
2017-Oct-17 06:20N 49°12' W 122°55'0 0.0
2017-Oct-17 05:51N 49°12' W 122°55'0 0.0
2017-Oct-17 05:10N 49°12' W 122°55'0 0.0
2017-Oct-17 04:59N 49°12' W 122°55'0 0.0
2017-Oct-17 04:28N 49°12' W 122°55'0 0.0
2017-Oct-17 03:50N 49°12' W 122°55'0 0.0
2017-Oct-17 03:16N 49°12' W 122°55'0 0.0
2017-Oct-17 02:57N 49°12' W 122°55'0 0.0
2017-Oct-17 02:29N 49°12' W 122°55'0 0.0
2017-Oct-17 00:46N 49°12' W 122°55'0 0.0
2017-Oct-17 00:28N 49°12' W 122°55'0 0.0
2017-Oct-16 23:58N 49°12' W 122°55'0 0.0
2017-Oct-16 23:16N 49°12' W 122°55'0 0.0
2017-Oct-16 22:59N 49°12' W 122°55'0 0.0
2017-Oct-16 22:30N 49°12' W 122°55'0 0.0
2017-Oct-16 22:00N 49°12' W 122°55'0 0.0
2017-Oct-16 21:30N 49°12' W 122°55'1020.8
2017-Oct-16 21:00N 49°07' W 123°09'2 4.8
2017-Oct-16 20:30N 49°08' W 123°12'4 8.7
2017-Oct-16 20:00N 49°06' W 123°19'0 0.3
2017-Oct-16 19:30N 49°06' W 123°18'0 0.3
2017-Oct-16 19:00N 49°06' W 123°18'0 0.3
2017-Oct-16 18:30N 49°06' W 123°18'0 0.3
2017-Oct-16 18:00N 49°06' W 123°18'1 1.2
2017-Oct-16 17:30N 49°06' W 123°19'0 0.3
2017-Oct-16 17:00N 49°06' W 123°19'1 2.5
2017-Oct-16 16:30N 49°06' W 123°17'0 0.8
2017-Oct-16 16:00N 49°06' W 123°18'1122.2
2017-Oct-16 15:30N 49°09' W 123°02'  
2017-Oct-12 21:59N 49°12' W 122°55'1530.5
2017-Oct-12 21:30N 49°07' W 123°17'815.4
2017-Oct-12 21:00N 49°01' W 123°09'0 0.4
2017-Oct-12 20:30N 49°01' W 123°09'1 1.0
2017-Oct-12 20:00N 49°01' W 123°10'0 0.3
2017-Oct-12 19:30N 49°01' W 123°10'0 0.2
2017-Oct-12 19:01N 49°01' W 123°10'0 0.1
2017-Oct-12 18:30N 49°01' W 123°10'1 1.1
2017-Oct-12 17:59N 49°01' W 123°10'0 0.2
2017-Oct-12 17:31N 49°01' W 123°10'714.1
2017-Oct-12 17:00N 49°05' W 123°19'6 8.3
2017-Oct-12 16:20N 49°07' W 123°11'1030.7
2017-Oct-12 16:01N 49°10' W 122°56'2 0.1
2017-Oct-11 18:49N 49°12' W 122°55'0 1.6
2017-Oct-11 18:31N 49°12' W 122°54'1 1.2
2017-Oct-11 18:00N 49°11' W 122°55'0 0.0
2017-Oct-10 22:23N 49°12' W 122°55'0 1.1
2017-Oct-10 22:00N 49°12' W 122°55'1 1.1
2017-Oct-10 21:30N 49°11' W 122°55'1 0.9
2017-Oct-10 20:57N 49°12' W 122°55'0 0.0
2017-Oct-10 20:30N 49°12' W 122°55'0 0.0
2017-Oct-10 20:00N 49°12' W 122°55'  
Track history (hours):
 
Tides and Currents Weather Stations Pressure Air Temp Water Temp Dewpoint Dewpoint Depression Visibility Wind Speed Wind Dir Waves Ship Positions

Pacific Echo

Last reported at 2017-Oct-20 19:30 UTC. Time now 2017-Oct-20 19:43 UTC.
Position N 49°07' W 123°17'.

Type: Other ship. MMSI: 316023437.

Date/timePositionNaut miles runAvg speedWind from/ knotsBaromVisibWave heightAir tempDewpointWater temp
2017-Oct-20 19:30N 49°07' W 123°17'1 2.3
2017-Oct-20 19:00N 49°07' W 123°16'0 0.1
2017-Oct-20 18:30N 49°07' W 123°16'0 0.6
2017-Oct-20 18:00N 49°07' W 123°16'0 0.4
2017-Oct-20 17:30N 49°07' W 123°16'0 0.3
2017-Oct-20 17:00N 49°07' W 123°16'0 0.1
2017-Oct-20 16:30N 49°07' W 123°16'1 2.5
2017-Oct-20 16:00N 49°07' W 123°17'713.7
2017-Oct-20 15:30N 49°07' W 123°07'9 1.3
2017-Oct-20 08:44N 49°12' W 122°55'0 0.0
2017-Oct-20 08:15N 49°12' W 122°55'0 0.0
2017-Oct-20 07:27N 49°12' W 122°55'0 0.0
2017-Oct-20 06:55N 49°12' W 122°55'0 0.0
2017-Oct-20 06:25N 49°12' W 122°55'0 0.0
2017-Oct-20 05:45N 49°12' W 122°55'0 0.0
2017-Oct-20 05:28N 49°12' W 122°55'0 0.0
2017-Oct-20 05:00N 49°12' W 122°55'0 0.0
2017-Oct-20 04:29N 49°12' W 122°55'0 0.0
2017-Oct-20 04:00N 49°12' W 122°55'0 0.0
2017-Oct-20 03:24N 49°12' W 122°55'0 0.0
2017-Oct-20 03:00N 49°12' W 122°55'0 0.0
2017-Oct-19 23:10N 49°12' W 122°55'0 0.0
2017-Oct-19 23:00N 49°12' W 122°55'0 0.0
2017-Oct-19 22:28N 49°12' W 122°55'0 0.0
2017-Oct-19 21:58N 49°12' W 122°55'0 0.0
2017-Oct-19 21:28N 49°12' W 122°55'0 0.0
2017-Oct-19 20:59N 49°12' W 122°55'0 0.3
2017-Oct-19 20:29N 49°12' W 122°55'11 9.8
2017-Oct-19 19:20N 49°07' W 123°11'412.3
2017-Oct-19 19:00N 49°07' W 123°17'714.4
2017-Oct-19 18:30N 49°00' W 123°12'1 2.8
2017-Oct-19 17:59N 49°01' W 123°09'0 0.6
2017-Oct-19 17:30N 49°01' W 123°10'0 0.2
2017-Oct-19 17:00N 49°00' W 123°10'611.5
2017-Oct-19 16:30N 49°03' W 123°17'5 7.4
2017-Oct-19 15:46N 49°07' W 123°11'728.4
2017-Oct-19 15:31N 49°09' W 123°01'4 8.4
2017-Oct-19 14:59N 49°12' W 122°55'0 0.0
2017-Oct-19 14:27N 49°12' W 122°55'0 0.0
2017-Oct-19 13:56N 49°12' W 122°55'0 0.0
2017-Oct-19 13:30N 49°12' W 122°55'0 0.0
2017-Oct-19 12:53N 49°12' W 122°55'0 0.0
2017-Oct-19 12:30N 49°12' W 122°55'0 0.0
2017-Oct-19 11:59N 49°12' W 122°55'0 0.0
2017-Oct-19 11:26N 49°12' W 122°55'0 0.0
2017-Oct-19 10:59N 49°12' W 122°55'0 0.0
2017-Oct-19 10:28N 49°12' W 122°55'0 0.0
2017-Oct-19 09:59N 49°12' W 122°55'0 0.0
2017-Oct-19 09:28N 49°12' W 122°55'0 0.0
2017-Oct-19 08:56N 49°12' W 122°55'0 0.0
2017-Oct-19 08:28N 49°12' W 122°55'0 0.0
2017-Oct-19 07:57N 49°12' W 122°55'0 0.0
2017-Oct-19 07:30N 49°12' W 122°55'0 0.0
2017-Oct-19 07:00N 49°12' W 122°55'0 0.0
2017-Oct-19 06:30N 49°12' W 122°55'0 0.0
2017-Oct-19 06:00N 49°12' W 122°55'0 0.0
2017-Oct-19 05:30N 49°12' W 122°55'0 0.0
2017-Oct-19 04:58N 49°12' W 122°55'0 0.0
2017-Oct-19 04:30N 49°12' W 122°55'0 0.0
2017-Oct-19 04:00N 49°12' W 122°55'0 0.0
2017-Oct-19 03:29N 49°12' W 122°55'0 0.0
2017-Oct-19 03:00N 49°12' W 122°55'0 0.0
2017-Oct-19 02:29N 49°12' W 122°55'0 0.0
2017-Oct-19 01:59N 49°12' W 122°55'0 0.0
2017-Oct-19 01:22N 49°12' W 122°55'0 0.0
2017-Oct-19 01:00N 49°12' W 122°55'0 0.0
2017-Oct-19 00:30N 49°12' W 122°55'0 0.0
2017-Oct-18 23:59N 49°12' W 122°55'0 0.0
2017-Oct-18 23:29N 49°12' W 122°55'0 0.0
2017-Oct-18 23:00N 49°12' W 122°55'0 0.0
2017-Oct-18 22:29N 49°12' W 122°55'0 0.3
2017-Oct-18 22:00N 49°11' W 122°55'917.2
2017-Oct-18 21:30N 49°07' W 123°06'1 2.0
2017-Oct-18 21:00N 49°07' W 123°05'0 0.5
2017-Oct-18 20:30N 49°07' W 123°05'0 0.8
2017-Oct-18 20:00N 49°07' W 123°06'1 1.1
2017-Oct-18 19:31N 49°07' W 123°05'1 2.1
2017-Oct-18 19:00N 49°08' W 123°04'1 2.2
2017-Oct-18 18:30N 49°09' W 123°03'1 1.8
2017-Oct-18 18:01N 49°08' W 123°03'1 1.8
2017-Oct-18 17:30N 49°09' W 123°02'0 1.0
2017-Oct-18 17:01N 49°08' W 123°03'610.7
2017-Oct-18 16:27N 49°12' W 122°55'0 0.0
2017-Oct-18 16:00N 49°12' W 122°55'0 0.0
2017-Oct-18 15:30N 49°12' W 122°55'0 0.0
2017-Oct-18 15:00N 49°12' W 122°55'0 0.0
2017-Oct-18 13:55N 49°12' W 122°55'0 0.0
2017-Oct-18 13:29N 49°12' W 122°55'0 0.0
2017-Oct-18 12:58N 49°12' W 122°55'0 0.0
2017-Oct-18 12:30N 49°12' W 122°55'0 0.0
2017-Oct-18 11:59N 49°12' W 122°55'0 0.0
2017-Oct-18 11:30N 49°12' W 122°55'0 0.0
2017-Oct-18 11:00N 49°12' W 122°55'0 0.0
2017-Oct-18 10:30N 49°12' W 122°55'0 0.0
2017-Oct-18 10:00N 49°12' W 122°55'0 0.0
2017-Oct-18 09:30N 49°12' W 122°55'0 0.0
2017-Oct-18 09:00N 49°12' W 122°55'0 0.0
2017-Oct-18 08:30N 49°12' W 122°55'0 0.0
2017-Oct-18 07:59N 49°12' W 122°55'0 0.0
2017-Oct-18 07:30N 49°12' W 122°55'0 0.0
2017-Oct-18 07:00N 49°12' W 122°55'0 0.0
2017-Oct-18 06:30N 49°12' W 122°55'0 0.0
2017-Oct-18 05:46N 49°12' W 122°55'0 0.0
2017-Oct-18 05:29N 49°12' W 122°55'0 0.0
2017-Oct-18 04:59N 49°12' W 122°55'0 0.0
2017-Oct-18 03:16N 49°12' W 122°55'0 0.0
2017-Oct-18 02:06N 49°12' W 122°55'0 0.0
2017-Oct-18 01:53N 49°12' W 122°55'0 0.0
2017-Oct-18 01:19N 49°12' W 122°55'0 0.0
2017-Oct-18 00:50N 49°12' W 122°55'0 0.0
2017-Oct-18 00:16N 49°12' W 122°55'0 0.0
2017-Oct-17 23:56N 49°12' W 122°55'0 0.0
2017-Oct-17 23:22N 49°12' W 122°55'0 0.0
2017-Oct-17 22:53N 49°12' W 122°55'0 0.0
2017-Oct-17 22:28N 49°12' W 122°55'0 0.0
2017-Oct-17 22:00N 49°12' W 122°55'0 0.0
2017-Oct-17 21:30N 49°12' W 122°55'1 2.3
2017-Oct-17 21:00N 49°10' W 122°55'3 5.4
2017-Oct-17 20:30N 49°09' W 122°59'1 1.4
2017-Oct-17 20:00N 49°09' W 123°00'1 1.9
2017-Oct-17 19:30N 49°09' W 122°59'1 1.7
2017-Oct-17 18:59N 49°09' W 123°00'2 4.0
2017-Oct-17 18:30N 49°09' W 122°57'0 0.8
2017-Oct-17 18:00N 49°09' W 122°57'0 0.2
2017-Oct-17 17:30N 49°10' W 122°57'1 1.7
2017-Oct-17 16:59N 49°09' W 122°58'0 0.1
2017-Oct-17 16:30N 49°09' W 122°58'0 0.8
2017-Oct-17 15:59N 49°09' W 122°57'1 3.0
2017-Oct-17 15:30N 49°10' W 122°56'1 2.0
2017-Oct-17 14:52N 49°12' W 122°55'0 0.0
2017-Oct-17 14:30N 49°12' W 122°55'0 0.0
2017-Oct-17 14:00N 49°12' W 122°55'0 0.0
2017-Oct-17 13:25N 49°12' W 122°55'0 0.0
2017-Oct-17 12:56N 49°12' W 122°55'0 0.0
2017-Oct-17 12:30N 49°12' W 122°55'0 0.0
2017-Oct-17 11:59N 49°12' W 122°55'0 0.0
2017-Oct-17 11:21N 49°12' W 122°55'0 0.0
2017-Oct-17 10:43N 49°12' W 122°55'0 0.0
2017-Oct-17 10:26N 49°12' W 122°55'0 0.0
2017-Oct-17 07:12N 49°12' W 122°55'0 0.0
2017-Oct-17 06:52N 49°12' W 122°55'0 0.0
2017-Oct-17 06:20N 49°12' W 122°55'0 0.0
2017-Oct-17 05:51N 49°12' W 122°55'0 0.0
2017-Oct-17 05:10N 49°12' W 122°55'0 0.0
2017-Oct-17 04:59N 49°12' W 122°55'0 0.0
2017-Oct-17 04:28N 49°12' W 122°55'0 0.0
2017-Oct-17 03:50N 49°12' W 122°55'0 0.0
2017-Oct-17 03:16N 49°12' W 122°55'0 0.0
2017-Oct-17 02:57N 49°12' W 122°55'0 0.0
2017-Oct-17 02:29N 49°12' W 122°55'0 0.0
2017-Oct-17 00:46N 49°12' W 122°55'0 0.0
2017-Oct-17 00:28N 49°12' W 122°55'0 0.0
2017-Oct-16 23:58N 49°12' W 122°55'0 0.0
2017-Oct-16 23:16N 49°12' W 122°55'0 0.0
2017-Oct-16 22:59N 49°12' W 122°55'0 0.0
2017-Oct-16 22:30N 49°12' W 122°55'0 0.0
2017-Oct-16 22:00N 49°12' W 122°55'0 0.0
2017-Oct-16 21:30N 49°12' W 122°55'1020.8
2017-Oct-16 21:00N 49°07' W 123°09'2 4.8
2017-Oct-16 20:30N 49°08' W 123°12'4 8.7
2017-Oct-16 20:00N 49°06' W 123°19'0 0.3
2017-Oct-16 19:30N 49°06' W 123°18'0 0.3
2017-Oct-16 19:00N 49°06' W 123°18'0 0.3
2017-Oct-16 18:30N 49°06' W 123°18'0 0.3
2017-Oct-16 18:00N 49°06' W 123°18'1 1.2
2017-Oct-16 17:30N 49°06' W 123°19'0 0.3
2017-Oct-16 17:00N 49°06' W 123°19'1 2.5
2017-Oct-16 16:30N 49°06' W 123°17'0 0.8
2017-Oct-16 16:00N 49°06' W 123°18'1122.2
2017-Oct-16 15:30N 49°09' W 123°02'  
2017-Oct-12 21:59N 49°12' W 122°55'1530.5
2017-Oct-12 21:30N 49°07' W 123°17'815.4
2017-Oct-12 21:00N 49°01' W 123°09'0 0.4
2017-Oct-12 20:30N 49°01' W 123°09'1 1.0
2017-Oct-12 20:00N 49°01' W 123°10'0 0.3
2017-Oct-12 19:30N 49°01' W 123°10'0 0.2
2017-Oct-12 19:01N 49°01' W 123°10'0 0.1
2017-Oct-12 18:30N 49°01' W 123°10'1 1.1
2017-Oct-12 17:59N 49°01' W 123°10'0 0.2
2017-Oct-12 17:31N 49°01' W 123°10'714.1
2017-Oct-12 17:00N 49°05' W 123°19'6 8.3
2017-Oct-12 16:20N 49°07' W 123°11'1030.7
2017-Oct-12 16:01N 49°10' W 122°56'2 0.1
2017-Oct-11 18:49N 49°12' W 122°55'0 1.6
2017-Oct-11 18:31N 49°12' W 122°54'1 1.2
2017-Oct-11 18:00N 49°11' W 122°55'0 0.0
2017-Oct-10 22:23N 49°12' W 122°55'0 1.1
2017-Oct-10 22:00N 49°12' W 122°55'1 1.1
2017-Oct-10 21:30N 49°11' W 122°55'1 0.9
2017-Oct-10 20:57N 49°12' W 122°55'0 0.0
2017-Oct-10 20:30N 49°12' W 122°55'0 0.0
2017-Oct-10 20:00N 49°12' W 122°55'  

Dump ship's entire track history